Time;durP1;ratioP1;P1;durP2;ratioP2;P2;SDS_P1;SDS_P2;PMS_P1;PMS_P2;Temp;Humidity;BMP_temperature;BMP_pressure;BME280_temperature;BME280_humidity;BME280_pressure;Samples;Min_cycle;Max_cycle;Signal;HPM_P1;HPM_P2
2022/03/26 00:00:33;;;;;;;0.80;0.80;;;8.50;95.10;;;;;;6310412;28;20275;-81
2022/03/26 00:03:50;;;;;;;0.88;0.88;;;8.50;94.90;;;;;;6312166;28;20298;-81
2022/03/26 00:06:57;;;;;;;4.95;1.70;;;8.50;94.20;;;;;;6312593;28;20234;-81
2022/03/26 00:10:04;;;;;;;14.18;1.50;;;8.60;91.80;;;;;;6326689;28;20463;-81
2022/03/26 00:13:10;;;;;;;5.03;0.82;;;8.50;90.40;;;;;;6324553;28;20287;-81
2022/03/26 00:16:16;;;;;;;5.03;0.95;;;8.60;87.20;;;;;;6294104;28;20271;-81
2022/03/26 00:19:22;;;;;;;4.03;1.05;;;8.60;84.60;;;;;;6294384;28;20299;-81
2022/03/26 00:22:29;;;;;;;5.75;1.00;;;8.50;82.10;;;;;;6294094;28;20290;-81
2022/03/26 00:25:34;;;;;;;1.23;0.85;;;8.40;80.50;;;;;;6294905;28;20551;-81
2022/03/26 00:28:41;;;;;;;8.10;0.95;;;8.40;75.40;;;;;;6294634;28;20294;-81
2022/03/26 00:31:47;;;;;;;5.47;1.13;;;8.40;73.80;;;;;;6293576;28;20264;-82
2022/03/26 00:34:53;;;;;;;6.03;1.10;;;8.50;70.30;;;;;;6309908;28;20291;-81
2022/03/26 00:38:00;;;;;;;2.05;1.15;;;8.40;72.50;;;;;;6294190;28;20530;-81
2022/03/26 00:41:05;;;;;;;2.38;1.02;;;8.20;69.00;;;;;;6294856;28;20268;-81
2022/03/26 00:44:12;;;;;;;1.27;0.82;;;8.10;65.20;;;;;;6294954;28;20300;-82
2022/03/26 00:47:17;;;;;;;4.15;1.05;;;8.10;60.60;;;;;;6309898;28;20291;-81
2022/03/26 00:50:23;;;;;;;2.85;1.10;;;8.10;58.20;;;;;;6294615;28;20268;-81
2022/03/26 00:53:31;;;;;;;4.70;1.00;;;8.10;57.40;;;;;;6308931;28;20307;-80
2022/03/26 00:56:37;;;;;;;2.25;0.90;;;7.90;56.80;;;;;;6293746;28;20271;-80
2022/03/26 00:59:43;;;;;;;6.05;1.42;;;8.00;55.50;;;;;;6292318;28;20283;-80
2022/03/26 01:02:48;;;;;;;1.48;0.93;;;7.90;54.90;;;;;;6292377;28;20307;-82
2022/03/26 01:05:54;;;;;;;2.50;1.20;;;7.70;54.40;;;;;;6293279;28;20290;-80
2022/03/26 01:09:03;;;;;;;2.72;1.40;;;7.80;53.30;;;;;;6307528;28;20347;-79
2022/03/26 01:12:12;;;;;;;5.60;1.10;;;7.70;52.70;;;;;;6291246;28;20263;-80
2022/03/26 01:15:17;;;;;;;1.35;0.90;;;7.70;52.20;;;;;;6268323;28;20275;-81
2022/03/26 01:18:23;;;;;;;4.90;1.00;;;7.60;52.70;;;;;;6295226;28;20283;-81
2022/03/26 01:21:28;;;;;;;2.47;0.90;;;7.50;52.10;;;;;;6294378;28;20271;-82
2022/03/26 01:24:37;;;;;;;1.10;1.10;;;7.50;52.00;;;;;;6291758;28;20298;-81
2022/03/26 01:27:42;;;;;;;7.90;1.27;;;7.40;51.80;;;;;;6302181;28;20296;-81
2022/03/26 01:30:48;;;;;;;3.03;1.08;;;7.40;51.30;;;;;;6268340;28;20572;-81
2022/03/26 01:33:54;;;;;;;3.20;1.45;;;7.40;51.20;;;;;;6297852;28;20299;-82
2022/03/26 01:37:01;;;;;;;5.05;1.52;;;7.30;51.00;;;;;;6292347;28;20267;-81
2022/03/26 01:40:10;;;;;;;9.67;1.97;;;7.30;50.40;;;;;;6291927;28;20271;-81
2022/03/26 01:43:18;;;;;;;11.07;2.83;;;7.20;49.70;;;;;;6292831;28;20375;-81
2022/03/26 01:46:23;;;;;;;6.37;1.43;;;7.10;50.30;;;;;;6292294;28;20451;-81
2022/03/26 01:49:30;;;;;;;10.57;1.48;;;7.10;49.70;;;;;;6291977;28;20472;-80
2022/03/26 01:52:35;;;;;;;32.73;2.53;;;7.00;50.40;;;;;;6303418;28;20303;-81
2022/03/26 01:55:45;;;;;;;12.32;2.03;;;6.90;50.50;;;;;;6267087;28;20283;-81
2022/03/26 01:58:51;;;;;;;8.77;1.40;;;6.90;50.80;;;;;;6282190;28;20295;-81
2022/03/26 02:05:57;;;;;;;11.70;1.47;;;6.80;51.50;;;;;;6659157;23;20309;-82
2022/03/26 02:09:04;;;;;;;8.57;1.40;;;6.70;52.00;;;;;;6165217;28;20291;-82
2022/03/26 02:12:25;;;;;;;7.17;1.63;;;6.70;51.90;;;;;;6144941;28;20283;-81
2022/03/26 02:15:31;;;;;;;5.40;1.57;;;6.60;52.20;;;;;;6169955;29;20437;-81
2022/03/26 02:18:36;;;;;;;5.80;1.37;;;6.50;52.90;;;;;;6169824;28;20299;-81
2022/03/26 02:21:47;;;;;;;3.80;1.47;;;6.50;53.10;;;;;;6168907;29;20267;-82
2022/03/26 02:24:54;;;;;;;5.23;1.20;;;6.40;53.00;;;;;;6168412;28;20306;-81
2022/03/26 02:27:59;;;;;;;1.43;1.20;;;6.40;53.50;;;;;;6167360;28;20298;-82
2022/03/26 02:31:05;;;;;;;4.93;1.33;;;6.30;54.30;;;;;;6181978;28;20282;-79
2022/03/26 02:34:11;;;;;;;9.40;1.23;;;6.30;54.60;;;;;;6166379;28;20298;-80
2022/03/26 02:37:19;;;;;;;2.50;1.10;;;6.30;55.30;;;;;;6166015;28;20281;-80
2022/03/26 02:40:24;;;;;;;4.67;1.40;;;6.20;55.10;;;;;;6150893;28;20446;-80
2022/03/26 02:43:30;;;;;;;6.10;1.17;;;6.20;56.20;;;;;;6141775;29;20306;-79
2022/03/26 02:46:38;;;;;;;7.00;1.40;;;6.10;56.50;;;;;;6144297;29;20298;-80
2022/03/26 02:49:43;;;;;;;1.27;1.10;;;6.10;57.10;;;;;;6143171;28;20452;-80
2022/03/26 02:52:50;;;;;;;7.30;1.37;;;6.10;57.90;;;;;;6143329;28;20303;-79
2022/03/26 02:55:56;;;;;;;7.17;1.20;;;6.00;58.20;;;;;;6126511;29;20286;-79
2022/03/26 02:59:02;;;;;;;1.80;1.30;;;6.00;59.30;;;;;;6126197;29;20564;-80
2022/03/26 03:02:09;;;;;;;5.43;1.30;;;5.90;60.30;;;;;;6140898;28;20274;-80
2022/03/26 03:05:15;;;;;;;2.93;1.13;;;5.90;60.30;;;;;;6143402;29;20310;-80
2022/03/26 03:08:22;;;;;;;2.00;0.90;;;5.90;61.90;;;;;;6143625;28;20609;-81
2022/03/26 03:11:29;;;;;;;1.27;1.00;;;5.80;63.30;;;;;;6142405;29;20282;-80
2022/03/26 03:14:36;;;;;;;2.73;1.23;;;5.80;63.60;;;;;;6160797;28;20306;-80
2022/03/26 03:17:42;;;;;;;4.77;1.20;;;5.70;65.10;;;;;;6167327;28;20290;-80
2022/03/26 03:20:48;;;;;;;2.87;1.30;;;5.70;65.40;;;;;;6167571;28;20275;-80
2022/03/26 03:23:55;;;;;;;1.40;1.10;;;5.70;67.40;;;;;;6166876;28;20309;-80
2022/03/26 03:27:00;;;;;;;2.50;1.10;;;5.60;68.80;;;;;;6165432;28;20318;-81
2022/03/26 03:30:07;;;;;;;5.30;1.50;;;5.60;70.20;;;;;;6167148;28;20277;-81
2022/03/26 03:33:13;;;;;;;1.63;1.10;;;5.60;71.20;;;;;;6167161;28;20302;-81
2022/03/26 03:36:19;;;;;;;2.63;1.00;;;5.50;71.10;;;;;;6166958;28;20282;-81
2022/03/26 03:39:26;;;;;;;4.37;1.23;;;5.50;73.50;;;;;;6165513;29;20417;-81
2022/03/26 03:42:32;;;;;;;3.80;1.20;;;5.40;73.90;;;;;;6149409;28;20301;-80
2022/03/26 03:45:38;;;;;;;2.10;1.20;;;5.40;75.30;;;;;;6167114;28;20616;-80
2022/03/26 03:48:43;;;;;;;1.10;1.10;;;5.40;76.40;;;;;;6167534;28;20300;-81
2022/03/26 03:51:49;;;;;;;1.67;1.30;;;5.40;75.80;;;;;;6171279;28;20332;-80
2022/03/26 03:54:56;;;;;;;2.83;1.13;;;5.30;76.50;;;;;;6171237;28;20471;-80
2022/03/26 03:58:02;;;;;;;0.97;0.97;;;5.30;77.30;;;;;;6171201;28;20296;-81
2022/03/26 04:01:07;;;;;;;4.17;1.40;;;5.30;79.10;;;;;;6186192;28;20555;-81
2022/03/26 04:04:13;;;;;;;4.00;1.17;;;5.30;78.80;;;;;;6154649;28;20297;-81
2022/03/26 04:07:19;;;;;;;1.33;1.23;;;5.20;80.80;;;;;;6161511;28;20517;-81
2022/03/26 04:10:25;;;;;;;3.23;1.30;;;5.20;81.50;;;;;;6165531;28;20266;-81
2022/03/26 04:13:36;;;;;;;5.67;1.30;;;5.20;80.80;;;;;;6147430;29;20306;-81
2022/03/26 04:16:41;;;;;;;2.93;1.27;;;5.20;83.00;;;;;;6100062;29;20600;-81
2022/03/26 04:19:47;;;;;;;1.60;1.03;;;5.10;82.10;;;;;;6159810;28;20294;-81
2022/03/26 04:22:53;;;;;;;3.07;1.27;;;5.20;81.50;;;;;;6171249;28;20292;-81
2022/03/26 04:26:00;;;;;;;1.60;1.00;;;5.10;82.70;;;;;;6171667;28;20304;-81
2022/03/26 04:29:07;;;;;;;2.07;1.00;;;5.10;83.30;;;;;;6171170;28;20301;-81
2022/03/26 04:32:13;;;;;;;3.73;1.30;;;5.10;82.90;;;;;;6170761;28;20277;-81
2022/03/26 04:35:19;;;;;;;3.13;1.20;;;5.10;84.70;;;;;;6169145;29;20278;-80
2022/03/26 04:38:25;;;;;;;1.90;1.20;;;5.10;85.30;;;;;;6168596;29;20294;-81
2022/03/26 04:41:31;;;;;;;3.43;1.20;;;5.10;85.60;;;;;;6169244;29;20524;-81
2022/03/26 04:44:37;;;;;;;2.20;1.10;;;5.00;86.10;;;;;;6170186;28;20311;-81
2022/03/26 04:47:43;;;;;;;11.67;1.20;;;5.00;86.10;;;;;;6169717;28;20304;-81
2022/03/26 04:50:48;;;;;;;2.90;1.30;;;4.90;87.90;;;;;;6170588;28;20278;-81
2022/03/26 04:53:54;;;;;;;6.73;1.60;;;5.00;86.30;;;;;;6169695;28;20302;-81
2022/03/26 04:57:01;;;;;;;3.33;1.40;;;5.00;88.00;;;;;;6169118;28;20556;-80
2022/03/26 05:00:10;;;;;;;1.20;1.13;;;5.00;88.80;;;;;;6170391;28;20281;-81
2022/03/26 05:03:16;;;;;;;1.20;1.20;;;5.00;89.10;;;;;;6169405;28;20305;-80
2022/03/26 05:06:23;;;;;;;3.60;1.10;;;5.00;88.40;;;;;;6169387;28;20303;-80
2022/03/26 05:09:29;;;;;;;2.40;1.43;;;5.00;88.90;;;;;;6167061;28;20312;-81
2022/03/26 05:12:39;;;;;;;2.60;1.33;;;5.00;89.50;;;;;;6145107;29;20302;-81
2022/03/26 05:15:45;;;;;;;2.23;0.90;;;5.00;89.60;;;;;;6145521;29;20276;-81
2022/03/26 05:18:51;;;;;;;2.77;1.30;;;5.00;90.20;;;;;;6145265;28;20303;-81
2022/03/26 05:21:56;;;;;;;2.10;1.07;;;4.90;90.40;;;;;;6146057;29;20270;-81
2022/03/26 05:25:02;;;;;;;4.23;1.00;;;4.90;90.70;;;;;;6143059;29;20453;-81
2022/03/26 05:28:10;;;;;;;2.37;1.60;;;4.90;90.40;;;;;;6145119;28;20296;-80
2022/03/26 05:31:16;;;;;;;3.10;1.10;;;5.00;90.50;;;;;;6145526;29;20277;-80
2022/03/26 05:34:21;;;;;;;1.50;1.40;;;5.00;90.60;;;;;;6145078;28;20301;-80
2022/03/26 05:37:28;;;;;;;3.50;1.10;;;5.00;90.40;;;;;;6145381;29;20296;-80
2022/03/26 05:40:33;;;;;;;2.33;1.00;;;5.00;90.40;;;;;;6144780;29;20264;-79
2022/03/26 05:43:40;;;;;;;1.60;1.20;;;5.00;90.40;;;;;;6143968;29;20302;-80
2022/03/26 05:46:45;;;;;;;2.53;1.13;;;5.00;90.80;;;;;;6130473;29;20273;-80
2022/03/26 05:49:51;;;;;;;2.27;1.17;;;5.00;91.00;;;;;;6145106;28;20584;-80
2022/03/26 05:52:57;;;;;;;2.03;1.00;;;5.10;90.60;;;;;;6128779;29;20301;-80
2022/03/26 05:56:02;;;;;;;2.93;1.10;;;5.10;91.00;;;;;;6145437;29;20270;-80
2022/03/26 05:59:10;;;;;;;1.77;1.10;;;5.00;91.30;;;;;;6127747;29;20308;-80
2022/03/26 06:02:16;;;;;;;4.23;1.10;;;5.10;90.80;;;;;;6129226;28;20281;-80
2022/03/26 06:05:22;;;;;;;3.37;1.20;;;5.10;90.60;;;;;;6142409;29;20310;-80
2022/03/26 06:08:28;;;;;;;1.70;1.23;;;5.10;90.60;;;;;;6142449;29;20305;-81
2022/03/26 06:11:33;;;;;;;3.13;1.10;;;5.10;90.20;;;;;;6144179;29;20277;-80
2022/03/26 06:14:41;;;;;;;0.93;0.93;;;5.20;90.30;;;;;;6143817;28;20296;-80
2022/03/26 06:17:47;;;;;;;1.70;0.93;;;5.20;90.20;;;;;;6143806;28;20459;-81
2022/03/26 06:20:53;;;;;;;5.10;1.10;;;5.20;89.50;;;;;;6145092;29;20283;-80
2022/03/26 06:23:59;;;;;;;2.93;1.40;;;5.20;87.80;;;;;;6144146;28;20309;-80
2022/03/26 06:27:06;;;;;;;4.23;1.23;;;5.20;86.30;;;;;;6144076;28;20277;-81
2022/03/26 06:30:13;;;;;;;3.80;1.00;;;5.30;84.90;;;;;;6143141;29;20301;-80
2022/03/26 06:33:19;;;;;;;4.47;1.43;;;5.30;83.70;;;;;;6143395;28;20380;-80
2022/03/26 06:36:25;;;;;;;10.17;1.47;;;5.40;81.60;;;;;;6144151;29;20271;-80
2022/03/26 06:39:31;;;;;;;4.13;1.10;;;5.40;83.50;;;;;;6142470;29;20301;-80
2022/03/26 06:42:37;;;;;;;4.33;1.17;;;5.40;82.50;;;;;;6143812;28;20305;-80
2022/03/26 06:45:43;;;;;;;3.57;1.40;;;5.50;81.80;;;;;;6143350;29;20280;-80
2022/03/26 06:48:49;;;;;;;5.20;1.33;;;5.50;82.20;;;;;;6143836;28;20296;-81
2022/03/26 06:51:54;;;;;;;2.20;1.10;;;5.50;81.60;;;;;;6145638;29;20274;-81
2022/03/26 06:55:02;;;;;;;3.30;1.00;;;5.50;81.70;;;;;;6145695;29;20598;-81
2022/03/26 06:58:10;;;;;;;1.47;1.00;;;5.60;82.00;;;;;;6144634;29;20306;-81
2022/03/26 07:01:22;;;;;;;7.00;1.33;;;5.70;80.70;;;;;;6146650;29;20273;-81
2022/03/26 07:04:36;;;;;;;9.63;1.70;;;5.70;77.80;;;;;;6144855;29;20295;-81
2022/03/26 07:07:41;;;;;;;9.33;1.50;;;5.70;77.00;;;;;;6144805;28;20307;-81
2022/03/26 07:10:49;;;;;;;5.87;1.63;;;5.80;73.70;;;;;;6158684;29;20268;-82
2022/03/26 07:13:59;;;;;;;13.27;1.83;;;5.90;70.00;;;;;;6178545;28;20262;-80
2022/03/26 07:17:07;;;;;;;11.37;1.50;;;5.90;63.90;;;;;;6189238;28;20278;-81
2022/03/26 07:20:15;;;;;;;14.57;1.80;;;6.00;61.90;;;;;;6178798;28;20249;-80
2022/03/26 07:23:20;;;;;;;31.53;2.57;;;6.00;59.30;;;;;;6172607;28;20297;-79
2022/03/26 07:26:26;;;;;;;20.30;1.87;;;6.00;58.30;;;;;;6179017;28;20364;-80
2022/03/26 07:29:32;;;;;;;11.50;1.70;;;6.00;57.50;;;;;;6172845;28;20305;-80
2022/03/26 07:32:39;;;;;;;11.57;1.63;;;6.00;56.10;;;;;;6171683;28;20293;-81
2022/03/26 07:35:45;;;;;;;7.67;1.10;;;6.00;55.50;;;;;;6171539;28;20281;-80
2022/03/26 07:38:51;;;;;;;8.87;1.13;;;6.00;55.20;;;;;;6171858;28;20304;-81
2022/03/26 07:41:56;;;;;;;20.37;1.97;;;6.00;55.20;;;;;;6172615;28;20275;-81
2022/03/26 07:45:02;;;;;;;7.10;1.30;;;6.00;54.50;;;;;;6171151;28;20285;-81
2022/03/26 07:48:09;;;;;;;5.90;1.20;;;6.10;54.20;;;;;;6170028;28;20572;-81
2022/03/26 07:51:15;;;;;;;8.73;1.30;;;6.10;53.50;;;;;;6172171;28;20623;-80
2022/03/26 07:54:22;;;;;;;8.03;1.13;;;6.20;52.40;;;;;;6170526;28;20293;-82
2022/03/26 07:57:28;;;;;;;9.33;0.93;;;6.10;52.80;;;;;;6171251;28;20297;-82
2022/03/26 08:00:34;;;;;;;11.50;1.33;;;6.20;52.70;;;;;;6186088;28;20285;-81
2022/03/26 08:03:52;;;;;;;3.47;0.87;;;6.20;51.90;;;;;;6186838;28;20298;-81
2022/03/26 08:07:08;;;;;;;7.50;1.00;;;6.30;51.70;;;;;;6170312;28;20306;-81
2022/03/26 08:10:14;;;;;;;6.53;1.10;;;6.30;52.00;;;;;;6171643;28;20297;-82
2022/03/26 08:13:20;;;;;;;12.13;1.47;;;6.30;51.40;;;;;;6170586;28;20305;-81
2022/03/26 08:16:29;;;;;;;17.07;1.50;;;6.30;51.00;;;;;;6171080;28;20277;-81
2022/03/26 08:19:37;;;;;;;13.33;1.13;;;6.30;50.60;;;;;;6185455;28;20491;-81
2022/03/26 08:22:42;;;;;;;1.03;0.80;;;6.30;51.40;;;;;;6184655;28;20305;-82
2022/03/26 08:29:11;;;;;;;4.37;1.07;;;6.40;51.10;;;;;;6169762;28;20304;-81
2022/03/26 08:32:18;;;;;;;8.83;1.57;;;6.40;51.20;;;;;;6169747;28;20274;-81
2022/03/26 08:35:25;;;;;;;5.47;1.10;;;6.50;51.00;;;;;;6171839;28;20278;-82
2022/03/26 08:38:30;;;;;;;10.47;1.43;;;6.50;50.80;;;;;;6171666;28;20624;-82
2022/03/26 08:41:36;;;;;;;4.00;0.90;;;6.40;51.10;;;;;;6172033;28;20270;-81
2022/03/26 08:44:41;;;;;;;6.53;1.20;;;6.50;49.90;;;;;;6171394;28;20302;-82
2022/03/26 08:47:47;;;;;;;9.20;1.33;;;6.50;48.60;;;;;;6170590;28;20301;-81
2022/03/26 08:50:54;;;;;;;4.23;0.97;;;6.50;49.10;;;;;;6170583;28;20293;-81
2022/03/26 08:54:03;;;;;;;7.27;1.20;;;6.50;49.70;;;;;;6137511;29;20302;-82
2022/03/26 08:57:10;;;;;;;5.83;1.07;;;6.50;49.80;;;;;;6170134;28;20279;-81
2022/03/26 09:00:17;;;;;;;9.03;1.37;;;6.60;49.50;;;;;;6186067;28;20278;-81
2022/03/26 09:03:26;;;;;;;6.47;1.10;;;6.70;49.50;;;;;;6171716;28;20294;-81
2022/03/26 09:06:35;;;;;;;41.63;3.60;;;6.60;47.50;;;;;;6170211;29;20323;-81
2022/03/26 09:09:40;;;;;;;7.80;1.43;;;6.60;45.30;;;;;;6170195;28;20306;-80
2022/03/26 09:12:52;;;;;;;2.53;1.00;;;6.60;45.00;;;;;;6170841;28;20603;-83
2022/03/26 09:15:58;;;;;;;7.00;1.10;;;6.60;45.20;;;;;;6168414;28;20309;-81
2022/03/26 09:19:04;;;;;;;11.47;1.47;;;6.70;45.00;;;;;;6168305;28;20297;-81
2022/03/26 09:22:13;;;;;;;6.93;1.20;;;6.60;45.10;;;;;;6182434;28;20295;-81
2022/03/26 09:25:20;;;;;;;3.43;1.10;;;6.60;45.40;;;;;;6165379;28;20293;-82
2022/03/26 09:28:25;;;;;;;1.60;1.10;;;6.60;46.00;;;;;;6166595;28;20294;-81
2022/03/26 09:31:31;;;;;;;1.13;1.10;;;6.70;45.90;;;;;;6168491;28;20301;-82
2022/03/26 09:34:37;;;;;;;8.60;1.00;;;6.80;45.40;;;;;;6166745;28;20298;-83
2022/03/26 09:37:44;;;;;;;5.40;0.90;;;6.90;44.30;;;;;;6167982;28;20469;-82
2022/03/26 09:40:50;;;;;;;10.43;0.83;;;6.80;43.50;;;;;;6169242;28;20294;-83
2022/03/26 09:43:56;;;;;;;7.83;1.40;;;6.80;41.20;;;;;;6169717;28;20299;-82
2022/03/26 09:47:03;;;;;;;4.23;1.40;;;6.80;40.80;;;;;;6164550;28;20297;-83
2022/03/26 09:50:12;;;;;;;1.30;0.90;;;6.80;41.60;;;;;;6167003;28;20290;-82
2022/03/26 09:53:21;;;;;;;7.43;1.00;;;6.90;41.70;;;;;;6167853;28;20298;-82
2022/03/26 09:56:28;;;;;;;3.73;1.20;;;7.00;41.90;;;;;;6165428;28;20533;-82
2022/03/26 09:59:36;;;;;;;6.47;1.20;;;7.00;42.20;;;;;;6165802;28;20457;-82
2022/03/26 10:02:43;;;;;;;6.80;1.30;;;7.10;42.20;;;;;;6167438;28;20298;-81
2022/03/26 10:05:48;;;;;;;4.17;1.00;;;7.00;42.70;;;;;;6166531;28;20305;-81
2022/03/26 10:08:55;;;;;;;4.20;0.80;;;7.10;42.00;;;;;;6167896;28;20287;-81
2022/03/26 10:12:02;;;;;;;5.17;1.10;;;7.20;41.90;;;;;;6168187;28;20299;-81
2022/03/26 10:15:11;;;;;;;8.93;1.27;;;7.20;41.80;;;;;;6168238;28;20302;-81
2022/03/26 10:18:17;;;;;;;9.43;1.43;;;7.20;41.20;;;;;;6158336;28;20294;-80
2022/03/26 10:21:23;;;;;;;7.50;1.37;;;7.30;40.50;;;;;;6154574;28;20471;-82
2022/03/26 10:24:32;;;;;;;5.77;1.27;;;7.40;39.70;;;;;;6164902;28;20326;-79
2022/03/26 10:27:41;;;;;;;11.97;1.23;;;7.60;39.70;;;;;;6161983;28;20302;-79
2022/03/26 10:34:15;;;;;;;4.97;1.00;;;7.70;39.10;;;;;;6163074;28;20290;-78
2022/03/26 10:37:22;;;;;;;7.30;1.03;;;7.80;39.90;;;;;;6164015;28;20294;-81
2022/03/26 10:40:34;;;;;;;1.90;1.20;;;7.90;39.60;;;;;;6178171;28;20291;-80
2022/03/26 10:43:42;;;;;;;5.38;1.67;;;7.80;38.80;;;;;;6163043;28;20585;-78
2022/03/26 10:46:52;;;;;;;3.50;1.13;;;7.80;38.80;;;;;;6165752;28;20307;-81
2022/03/26 10:50:06;;;;;;;4.25;1.00;;;7.70;38.90;;;;;;6164693;28;20298;-82
2022/03/26 10:53:15;;;;;;;10.77;0.95;;;7.90;39.10;;;;;;6164902;28;20299;-86
2022/03/26 10:56:22;;;;;;;3.53;1.23;;;7.90;38.70;;;;;;6164473;28;20298;-81
2022/03/26 10:59:27;;;;;;;5.47;1.20;;;7.80;39.30;;;;;;6165286;28;20318;-81
2022/03/26 11:02:33;;;;;;;3.60;1.30;;;7.90;39.30;;;;;;6166019;28;20461;-81
2022/03/26 11:05:40;;;;;;;9.75;1.45;;;7.90;39.00;;;;;;6165174;28;20310;-81
2022/03/26 11:08:48;;;;;;;6.60;1.00;;;7.90;39.30;;;;;;6173092;28;20485;-82
2022/03/26 11:11:58;;;;;;;9.60;1.40;;;7.90;39.10;;;;;;6159986;28;20303;-82
2022/03/26 11:15:07;;;;;;;5.38;1.00;;;7.80;39.30;;;;;;6151362;28;20302;-81
2022/03/26 11:18:45;;;;;;;3.42;1.00;;;7.70;39.30;;;;;;6143810;28;20303;-81
2022/03/26 11:22:28;;;;;;;3.92;1.10;;;7.80;39.80;;;;;;6142010;29;20550;-82
2022/03/26 11:26:14;;;;;;;1.50;1.30;;;7.90;40.20;;;;;;6121083;29;20287;-82
2022/03/26 11:29:38;;;;;;;20.88;1.58;;;8.00;39.70;;;;;;6144305;29;20307;-81
2022/03/26 11:32:45;;;;;;;1.42;1.10;;;7.90;39.40;;;;;;6141743;28;20307;-81
2022/03/26 11:35:58;;;;;;;6.18;1.33;;;7.90;39.40;;;;;;6144289;29;20275;-81
2022/03/26 11:39:12;;;;;;;8.57;1.75;;;7.90;39.60;;;;;;6142794;28;20299;-81
2022/03/26 11:42:24;;;;;;;5.50;1.10;;;7.70;39.40;;;;;;6142673;28;20272;-80
2022/03/26 11:52:40;;;;;;;7.43;1.40;;;7.70;39.60;;;;;;6142023;28;20307;-81
2022/03/26 11:55:49;;;;;;;1.95;1.20;;;7.60;40.00;;;;;;6142644;29;20267;-81
2022/03/26 11:59:09;;;;;;;2.97;1.95;;;7.60;41.10;;;;;;6142395;28;20298;-81
2022/03/26 12:02:22;;;;;;;2.72;1.58;;;7.60;41.40;;;;;;6143194;28;20342;-81
2022/03/26 12:08:53;;;;;;;2.72;1.30;;;7.50;41.10;;;;;;6142606;29;20304;-81
2022/03/26 12:12:19;;;;;;;4.00;1.43;;;7.60;40.80;;;;;;6167339;29;20454;-80
2022/03/26 12:15:28;;;;;;;1.58;1.48;;;7.60;41.20;;;;;;6169673;28;20279;-80
2022/03/26 12:18:37;;;;;;;1.80;1.38;;;7.60;41.60;;;;;;6169532;28;20585;-81
2022/03/26 12:21:50;;;;;;;6.10;1.35;;;7.60;41.60;;;;;;6169559;28;20270;-80
2022/03/26 12:25:00;;;;;;;1.07;1.07;;;7.60;41.60;;;;;;6184561;28;20609;-81
2022/03/26 12:28:08;;;;;;;1.63;1.52;;;7.60;42.30;;;;;;6169011;28;20392;-80
2022/03/26 12:31:17;;;;;;;4.38;1.42;;;7.60;42.40;;;;;;6168653;29;20279;-80
2022/03/26 12:34:24;;;;;;;3.30;1.10;;;7.40;42.10;;;;;;6183757;28;20305;-80
2022/03/26 12:37:31;;;;;;;3.97;1.00;;;7.40;42.30;;;;;;6168921;28;20322;-80
2022/03/26 12:40:38;;;;;;;2.67;1.05;;;7.50;42.40;;;;;;6168648;28;20553;-81
2022/03/26 12:43:54;;;;;;;0.93;0.93;;;7.60;42.70;;;;;;6169982;28;20298;-82
2022/03/26 12:46:59;;;;;;;3.03;1.35;;;7.70;42.50;;;;;;6167220;28;20439;-84
2022/03/26 12:50:09;;;;;;;1.40;1.10;;;7.70;42.30;;;;;;6168252;29;20573;-84
2022/03/26 12:53:17;;;;;;;2.70;1.10;;;7.80;42.30;;;;;;6184697;28;20310;-82
2022/03/26 12:56:23;;;;;;;0.90;0.90;;;7.90;42.20;;;;;;6172211;28;20267;-82
2022/03/26 12:59:28;;;;;;;2.13;1.33;;;7.90;42.50;;;;;;6185351;28;20306;-81
2022/03/26 13:02:34;;;;;;;1.35;1.23;;;7.90;42.20;;;;;;6184758;28;20302;-83
2022/03/26 13:05:41;;;;;;;3.58;1.65;;;7.90;42.20;;;;;;6169187;29;20462;-82
2022/03/26 13:08:52;;;;;;;5.18;1.40;;;8.00;42.40;;;;;;6169651;28;20573;-82
2022/03/26 13:11:57;;;;;;;7.45;1.30;;;8.00;42.40;;;;;;6170800;28;20570;-80
2022/03/26 13:15:04;;;;;;;1.48;1.05;;;7.90;42.50;;;;;;6168506;29;20302;-82
2022/03/26 13:18:14;;;;;;;1.45;1.00;;;7.90;42.80;;;;;;6170289;28;20331;-82
2022/03/26 13:21:21;;;;;;;1.63;1.40;;;7.90;42.80;;;;;;6169226;28;20279;-82
2022/03/26 13:24:26;;;;;;;6.75;0.80;;;7.80;43.40;;;;;;6168521;28;20286;-82
2022/03/26 13:27:32;;;;;;;0.98;0.98;;;7.80;43.40;;;;;;6168270;28;20298;-82
2022/03/26 13:30:38;;;;;;;1.33;1.23;;;7.80;43.80;;;;;;6184607;28;20275;-83
2022/03/26 13:33:46;;;;;;;6.00;1.27;;;7.80;44.00;;;;;;6169316;28;20390;-82
2022/03/26 13:36:53;;;;;;;5.30;1.50;;;7.70;44.10;;;;;;6168401;29;20279;-82
2022/03/26 13:40:03;;;;;;;2.90;1.40;;;7.40;44.40;;;;;;6168794;28;20298;-83
2022/03/26 13:43:11;;;;;;;2.27;1.10;;;7.40;44.60;;;;;;6184299;28;20306;-81
2022/03/26 13:46:18;;;;;;;1.20;1.00;;;7.50;44.50;;;;;;6170745;28;20278;-83
2022/03/26 13:49:29;;;;;;;1.02;1.02;;;7.70;44.60;;;;;;6168545;28;20319;-82
2022/03/26 13:52:40;;;;;;;1.80;0.95;;;7.70;44.00;;;;;;6184826;28;20294;-82
2022/03/26 13:55:50;;;;;;;1.30;1.20;;;7.70;43.60;;;;;;6168828;28;20299;-82
2022/03/26 13:58:59;;;;;;;1.00;1.00;;;7.90;43.40;;;;;;6172337;28;20303;-82
2022/03/26 14:02:07;;;;;;;0.88;0.88;;;8.00;43.20;;;;;;6169095;28;20457;-83
2022/03/26 14:05:26;;;;;;;1.02;1.00;;;7.90;43.70;;;;;;6171672;28;20302;-82
2022/03/26 14:08:33;;;;;;;3.63;1.20;;;7.80;43.40;;;;;;6192438;28;20290;-83
2022/03/26 14:11:39;;;;;;;3.35;0.95;;;7.60;42.50;;;;;;6173913;28;20275;-82
2022/03/26 14:14:44;;;;;;;1.65;1.20;;;7.50;42.70;;;;;;6167250;29;20302;-84
2022/03/26 14:17:51;;;;;;;1.95;1.10;;;7.50;42.90;;;;;;6134184;29;20354;-85
2022/03/26 14:20:57;;;;;;;1.65;1.33;;;7.30;43.30;;;;;;6149575;29;20266;-83
2022/03/26 14:24:05;;;;;;;2.50;0.70;;;7.20;43.70;;;;;;6117554;29;20303;-84
2022/03/26 14:27:13;;;;;;;4.10;1.20;;;7.10;44.20;;;;;;6125145;29;20283;-82
2022/03/26 14:30:19;;;;;;;1.20;1.10;;;7.10;44.80;;;;;;6142844;29;20275;-83
2022/03/26 14:33:24;;;;;;;0.80;0.80;;;7.10;44.50;;;;;;6129633;29;20303;-83
2022/03/26 14:36:30;;;;;;;1.27;0.77;;;7.00;45.30;;;;;;6166993;29;20290;-84
2022/03/26 14:39:40;;;;;;;4.50;1.30;;;7.00;45.50;;;;;;6134753;29;20295;-80
2022/03/26 14:42:46;;;;;;;1.30;1.20;;;6.90;46.10;;;;;;6155240;28;20301;-83
2022/03/26 14:45:52;;;;;;;1.17;1.00;;;6.90;46.00;;;;;;6191720;28;20262;-81
2022/03/26 14:48:57;;;;;;;0.97;0.97;;;6.80;46.40;;;;;;6173955;28;20541;-83
2022/03/26 14:52:04;;;;;;;2.73;0.93;;;6.90;46.60;;;;;;6173493;28;20312;-82
2022/03/26 14:55:19;;;;;;;0.98;0.98;;;6.70;47.20;;;;;;6174927;28;20289;-81
2022/03/26 14:58:25;;;;;;;1.80;1.30;;;6.80;47.10;;;;;;6190847;28;20298;-81
2022/03/26 15:01:30;;;;;;;1.07;1.07;;;6.70;47.20;;;;;;6173716;28;20556;-80
2022/03/26 15:04:36;;;;;;;1.50;1.40;;;6.70;47.80;;;;;;6190394;28;20285;-80
2022/03/26 15:07:41;;;;;;;1.67;0.93;;;6.70;48.80;;;;;;6135647;28;20620;-81
2022/03/26 15:10:48;;;;;;;3.60;0.80;;;6.70;48.70;;;;;;6201631;28;20265;-81
2022/03/26 15:13:54;;;;;;;2.93;1.00;;;6.80;49.50;;;;;;6196909;28;20285;-81
2022/03/26 15:17:02;;;;;;;1.10;1.10;;;6.70;49.70;;;;;;6197000;28;20366;-79
2022/03/26 15:20:10;;;;;;;2.33;0.90;;;6.70;49.80;;;;;;6214951;28;20277;-81
2022/03/26 15:23:18;;;;;;;1.70;1.20;;;6.70;50.10;;;;;;6182068;28;20301;-82
2022/03/26 15:26:25;;;;;;;1.63;0.90;;;6.70;50.00;;;;;;6214195;28;20265;-81
2022/03/26 15:29:31;;;;;;;1.17;0.97;;;6.60;49.70;;;;;;6196308;28;20293;-81
2022/03/26 15:32:37;;;;;;;1.17;0.90;;;6.50;50.30;;;;;;6196499;28;20293;-82
2022/03/26 15:35:43;;;;;;;3.43;0.87;;;6.40;50.80;;;;;;6214182;28;20587;-81
2022/03/26 15:38:48;;;;;;;1.27;1.20;;;6.40;51.30;;;;;;6213610;28;20329;-81
2022/03/26 15:41:55;;;;;;;2.20;1.00;;;6.30;51.80;;;;;;6197018;28;20452;-82
2022/03/26 15:45:02;;;;;;;2.17;1.00;;;6.30;52.60;;;;;;6181308;28;20273;-81
2022/03/26 15:48:10;;;;;;;1.93;1.00;;;6.20;52.70;;;;;;6218544;28;20317;-79
2022/03/26 15:51:16;;;;;;;0.87;0.70;;;6.20;53.30;;;;;;6219743;28;20281;-80
2022/03/26 15:54:22;;;;;;;2.30;1.20;;;6.10;53.80;;;;;;6217678;28;20300;-80
2022/03/26 15:57:29;;;;;;;0.90;0.90;;;6.10;54.50;;;;;;6216564;28;20305;-82
2022/03/26 16:00:34;;;;;;;1.13;1.10;;;5.90;55.90;;;;;;6217272;28;20270;-81
2022/03/26 16:03:40;;;;;;;2.20;0.97;;;5.90;56.50;;;;;;6201192;28;20309;-83
2022/03/26 16:06:46;;;;;;;1.90;0.90;;;5.80;57.30;;;;;;6218366;28;20308;-81
2022/03/26 16:09:59;;;;;;;2.30;0.93;;;5.70;58.40;;;;;;6211998;28;20293;-81
2022/03/26 16:13:08;;;;;;;2.87;1.00;;;5.70;59.30;;;;;;6176098;28;20310;-80
2022/03/26 16:16:14;;;;;;;2.87;1.20;;;5.60;60.90;;;;;;6176005;28;20330;-82
2022/03/26 16:19:19;;;;;;;2.97;2.47;;;5.50;63.70;;;;;;6193086;28;20480;-82
2022/03/26 16:22:26;;;;;;;1.53;1.43;;;5.50;64.80;;;;;;6193097;28;20301;-83
2022/03/26 16:25:33;;;;;;;1.50;1.40;;;5.50;67.20;;;;;;6176857;28;20540;-82
2022/03/26 16:28:40;;;;;;;1.30;1.13;;;5.50;69.00;;;;;;6194444;28;20298;-83
2022/03/26 16:31:46;;;;;;;1.80;1.17;;;5.50;71.60;;;;;;6179278;28;20277;-81
2022/03/26 16:34:52;;;;;;;1.07;1.07;;;5.40;70.70;;;;;;6176200;28;20301;-82
2022/03/26 16:37:58;;;;;;;1.43;1.10;;;5.30;70.70;;;;;;6192747;28;20289;-81
2022/03/26 16:41:03;;;;;;;1.13;1.13;;;5.20;70.60;;;;;;6194480;28;20270;-81
2022/03/26 16:44:12;;;;;;;1.10;1.10;;;5.10;71.50;;;;;;6193919;28;20320;-82
2022/03/26 16:47:18;;;;;;;1.20;1.20;;;5.00;71.90;;;;;;6176629;28;20273;-82